Blue Grass (LEX)

 

Airport Diagram
Current Weather/Forecast (VFR Conditions)
METAR KLEX 290254Z 18007KT 10SM FEW100 21/17 A2998 RMK AO2 SLP142 T02060167 51014
TAF KLEX 282333Z 2900/2924 19008KT P6SM FEW040 SCT100 FM291400 22010G18KT P6SM VCSH FEW025 BKN050 PROB30 2918/2924 3SM -TSRA SCT020 BKN035CB

Airport Information

All Charts
General
Chart Name View
AIRPORT DIAGRAM
TAKEOFF MINIMUMS
ALTERNATE MINIMUMS
HOT SPOT

Arrivals
Chart Name Download
CLEGG FIVE

Approaches
Chart Name Download
ILS OR LOC RWY 04
ILS OR LOC RWY 22
RNAV (GPS) RWY 04
RNAV (GPS) RWY 09
RNAV (GPS) RWY 22
RNAV (GPS) RWY 27
VOR-A


Airport Statistics
Departures Arrivals Local
All Collected Stats since June 2016: 237 209 6
2020 Stats: 43 53 2
May Stats: 11 13 0

Inbound Traffic (Arrivals) - 0

No inbound traffic.


Outbound Traffic (Departures) - 0

No outbound traffic.


Local Traffic (Pattern) - 0

No local traffic.